Flight Track Log - Related Links

Times and Time Zones

All times are in EDT time to prevent confusion due to time zone crossing. See the MPE1528 flight status page for this flight to view local times or setup timezone preferences in your user account.

Time Position Orientation Groundspeed Altitude Reporting Facility
EDT Latitude Longitude Course Direction KTS MPH feet Rate Location/Type
Wed 06:50:31 AM 44.8833 -63.4833 77° East 160 184 2,700  Level Moncton Center
Wed 06:51:31 AM 44.9000 -63.3833 77° East 240 276 4,400 2,450 Climbing Moncton Center
Wed 06:52:31 AM 44.9167 -63.2833 77° East 250 288 7,600 2,900 Climbing Moncton Center
Wed 06:53:31 AM 44.9333 -63.1667 79° East 310 357 10,200 2,100 Climbing Moncton Center
Wed 06:54:31 AM 44.9833 -63.0500 59° Northeast 370 426 11,800 2,200 Climbing Moncton Center
Wed 06:55:31 AM 45.0333 -62.9333 59° Northeast 390 449 14,600 2,750 Climbing Moncton Center
Wed 06:56:31 AM 45.1000 -62.7833 58° Northeast 400 460 17,300 2,600 Climbing Moncton Center
Wed 06:57:31 AM 45.1500 -62.6500 62° Northeast 420 483 19,800 2,700 Climbing Moncton Center
Wed 06:58:31 AM 45.2000 -62.5000 65° Northeast 410 472 22,700 2,400 Climbing Moncton Center
Wed 06:59:31 AM 45.2500 -62.3500 65° Northeast 410 472 24,600 1,150 Climbing Moncton Center
Wed 07:00:31 AM 45.3167 -62.1833 60° Northeast 440 506 25,000 200 Climbing Moncton Center
Wed 07:01:31 AM 45.3833 -62.0333 58° Northeast 470 541 25,000 -450 Level Moncton Center
Wed 07:02:31 AM 45.4500 -61.8667 60° Northeast 470 541 24,100 -950 Descending Moncton Center
Wed 07:03:31 AM 45.5167 -61.7000 60° Northeast 470 541 23,100 -1,450 Descending Moncton Center
Wed 07:04:31 AM 45.5667 -61.5500 64° Northeast 460 529 21,200 -1,850 Descending Moncton Center
Wed 07:05:31 AM 45.6333 -61.3833 60° Northeast 450 518 19,400 -1,850 Descending Moncton Center
Wed 07:06:31 AM 45.6833 -61.2333 64° Northeast 430 495 17,500 -2,350 Descending Moncton Center
Wed 07:07:31 AM 45.7333 -61.0833 64° Northeast 410 472 14,700 -2,750 Descending Moncton Center
Wed 07:08:31 AM 45.7667 -60.9500 70° East 390 449 12,000 -2,550 Descending Moncton Center
Wed 07:09:31 AM 45.8167 -60.8000 64° Northeast 380 437 9,600 -1,550 Descending Moncton Center
Wed 07:10:31 AM 45.8500 -60.7000 64° Northeast 330 380 8,900 -1,000 Descending Moncton Center
Wed 07:11:31 AM 45.8833 -60.5667 70° East 300 345 7,600 -1,450 Descending Moncton Center
Wed 07:12:31 AM 45.9167 -60.4833 60° Northeast 290 334 6,000 -1,200 Descending Moncton Center
Wed 07:13:31 AM 45.9500 -60.3833 64° Northeast 280 322 5,200 -750 Descending Moncton Center
Wed 07:14:31 AM 45.9833 -60.2833 64° Northeast 250 288 4,500 -750 Descending Moncton Center
Wed 07:15:31 AM 46.0167 -60.2333 46° Northeast 210 242 3,700 -950 Descending Moncton Center
Wed 07:16:31 AM 46.0500 -60.1833 46° Northeast 200 230 2,600 -1,100 Descending Moncton Center
Wed 07:17:31 AM 46.1000 -60.1000 49° Northeast 190 219 1,500 -900 Descending Moncton Center
Wed 07:18:31 AM 46.1167 -60.0833 35° Northeast 160 184 800 -700 Descending Moncton Center
Wed 07:19:31 AM 46.1500 -60.0167 54° Northeast 140 161 100 -350 Descending Moncton Center
Wed 07:20:31 AM 46.1667 -60.0000 35° Northeast 140 161 100  Level Moncton Center

Login

Don't have an account? Register now (free) for customized features, flight alerts, and more!